createdAt,value
2023-11-29T00:01:18.739Z,90.04
2023-11-29T00:02:50.308Z,88.76
2023-11-29T00:04:21.987Z,88.67
2023-11-29T00:05:53.699Z,87.91
2023-11-29T00:07:25.327Z,89.07
2023-11-29T00:08:58.595Z,89.01
2023-11-29T00:10:30.191Z,88.64
2023-11-29T00:12:01.848Z,87.66
2023-11-29T00:13:33.455Z,89.19
2023-11-29T00:15:06.075Z,89.99
2023-11-29T00:16:37.672Z,89.08
2023-11-29T00:18:09.751Z,88.66
2023-11-29T00:19:44.822Z,89.32
2023-11-29T00:21:16.964Z,89.96
2023-11-29T00:22:48.646Z,90.14
2023-11-29T00:24:20.219Z,88.53
2023-11-29T00:25:51.801Z,89.02
2023-11-29T00:27:23.386Z,89.81
2023-11-29T00:28:55.001Z,88.51
2023-11-29T00:30:29.958Z,88.04
2023-11-29T00:32:02.398Z,87.72
2023-11-29T00:33:33.976Z,86.86
2023-11-29T00:35:06.165Z,87.12
2023-11-29T00:36:37.812Z,87.05
2023-11-29T00:38:09.513Z,87.88
2023-11-29T00:39:41.284Z,89.05
2023-11-29T00:41:12.880Z,89.74
2023-11-29T00:42:44.625Z,89.72
2023-11-29T00:44:16.963Z,89.14
2023-11-29T00:45:48.658Z,89.01
2023-11-29T00:47:20.769Z,88.98
2023-11-29T00:48:52.790Z,89.90
2023-11-29T00:50:24.350Z,89.41
2023-11-29T00:51:55.972Z,88.74
2023-11-29T00:53:27.826Z,88.57
2023-11-29T00:54:59.538Z,88.66
2023-11-29T00:56:31.764Z,87.99
2023-11-29T00:58:04.146Z,88.12
2023-11-29T00:59:35.919Z,87.03
2023-11-29T01:01:08.483Z,86.51
2023-11-29T01:02:40.458Z,86.58
2023-11-29T01:04:12.189Z,88.10
2023-11-29T01:05:43.908Z,87.90
2023-11-29T01:07:16.136Z,88.71
2023-11-29T01:08:47.971Z,87.82
2023-11-29T01:10:22.601Z,87.18
2023-11-29T01:11:54.398Z,87.19
2023-11-29T01:13:29.040Z,87.61
2023-11-29T01:15:00.696Z,86.95
2023-11-29T01:16:32.544Z,87.39
2023-11-29T01:18:04.349Z,86.93
2023-11-29T01:19:36.895Z,86.83
2023-11-29T01:21:22.332Z,87.02
2023-11-29T01:23:00.442Z,88.06
2023-11-29T01:24:32.144Z,87.02
2023-11-29T01:26:03.749Z,87.96
2023-11-29T01:27:35.378Z,87.33
2023-11-29T01:29:08.265Z,87.25
2023-11-29T01:30:41.952Z,87.17
2023-11-29T01:32:13.559Z,86.80
2023-11-29T01:33:45.184Z,87.03
2023-11-29T01:35:17.080Z,87.72
2023-11-29T01:36:49.454Z,89.21
2023-11-29T01:38:21.244Z,88.93
2023-11-29T01:39:52.879Z,89.40
2023-11-29T01:41:24.487Z,89.08
2023-11-29T01:42:56.066Z,89.05
2023-11-29T01:44:27.718Z,88.48
2023-11-29T01:45:59.698Z,88.52
2023-11-29T01:47:35.582Z,88.97
2023-11-29T01:49:08.184Z,88.68
2023-11-29T01:50:40.182Z,89.28
2023-11-29T01:52:12.640Z,89.43
2023-11-29T01:53:44.449Z,89.58
2023-11-29T01:55:19.555Z,90.27
2023-11-29T01:56:53.466Z,90.28
2023-11-29T01:58:26.880Z,90.04
2023-11-29T01:59:58.719Z,89.48
2023-11-29T02:01:30.353Z,90.03
2023-11-29T02:03:02.246Z,90.35
2023-11-29T02:04:34.191Z,90.03
2023-11-29T02:06:06.939Z,89.44
2023-11-29T02:07:39.450Z,89.57
2023-11-29T02:09:11.097Z,85.81
2023-11-29T02:10:42.823Z,85.25
2023-11-29T02:12:14.937Z,85.06
2023-11-29T02:13:46.556Z,84.16
2023-11-29T02:15:18.109Z,83.68
2023-11-29T02:16:49.807Z,84.06
2023-11-29T02:18:21.482Z,83.93
2023-11-29T02:19:53.134Z,83.98
2023-11-29T02:21:25.823Z,84.31
2023-11-29T02:23:04.229Z,84.45
2023-11-29T02:24:43.160Z,86.74
2023-11-29T02:26:14.749Z,86.67
2023-11-29T02:27:46.343Z,86.82
2023-11-29T02:29:20.663Z,87.11
2023-11-29T02:30:52.813Z,86.91
2023-11-29T02:32:24.991Z,86.54
2023-11-29T02:33:56.546Z,86.37
2023-11-29T02:35:28.168Z,87.51
2023-11-29T02:36:59.785Z,88.26
2023-11-29T02:38:31.674Z,87.77
2023-11-29T02:40:04.633Z,87.59
2023-11-29T02:41:39.112Z,87.86
2023-11-29T02:43:10.752Z,88.13
2023-11-29T02:44:42.557Z,87.59
2023-11-29T02:46:14.213Z,87.95
2023-11-29T02:47:46.042Z,88.16
2023-11-29T02:49:17.774Z,88.04
2023-11-29T02:50:49.499Z,87.95
2023-11-29T02:52:21.155Z,88.03
2023-11-29T02:53:52.785Z,88.03
2023-11-29T02:55:24.459Z,88.10
2023-11-29T02:56:56.107Z,89.43
2023-11-29T02:58:27.830Z,89.57
2023-11-29T02:59:59.439Z,89.74
2023-11-29T03:01:31.062Z,89.80
2023-11-29T03:03:02.698Z,89.42
2023-11-29T03:04:34.533Z,88.86
2023-11-29T03:06:06.799Z,88.66
2023-11-29T03:07:38.385Z,90.77
2023-11-29T03:09:10.102Z,90.42
2023-11-29T03:10:42.082Z,91.10
2023-11-29T03:12:13.739Z,90.76
2023-11-29T03:13:45.313Z,90.60
2023-11-29T03:15:16.989Z,90.16
2023-11-29T03:16:48.815Z,91.06
2023-11-29T03:18:20.573Z,91.20
2023-11-29T03:19:52.157Z,90.73
2023-11-29T03:21:23.733Z,90.42
2023-11-29T03:22:55.298Z,89.45
2023-11-29T03:24:26.845Z,89.18
2023-11-29T03:26:06.383Z,90.33
2023-11-29T03:27:37.977Z,90.96
2023-11-29T03:29:09.549Z,90.44
2023-11-29T03:30:41.144Z,90.37
2023-11-29T03:32:12.811Z,90.45
2023-11-29T03:33:44.377Z,90.58
2023-11-29T03:35:16.137Z,90.23
2023-11-29T03:36:47.756Z,89.96
2023-11-29T03:38:19.908Z,88.98
2023-11-29T03:39:51.491Z,89.14
2023-11-29T03:41:23.031Z,88.67
2023-11-29T03:42:55.913Z,88.43
2023-11-29T03:44:27.540Z,89.11
2023-11-29T03:45:59.150Z,88.43
2023-11-29T03:47:30.828Z,88.88
2023-11-29T03:49:02.417Z,88.98
2023-11-29T03:50:34.015Z,87.68
2023-11-29T03:52:05.664Z,88.03
2023-11-29T03:53:37.249Z,87.78
2023-11-29T03:55:09.039Z,87.19
2023-11-29T03:56:40.757Z,88.31
2023-11-29T03:58:12.628Z,87.76
2023-11-29T03:59:44.370Z,89.12
2023-11-29T04:01:15.921Z,89.46
2023-11-29T04:02:47.553Z,89.01
2023-11-29T04:04:19.313Z,88.43
2023-11-29T04:05:52.440Z,89.07
2023-11-29T04:07:24.131Z,88.70
2023-11-29T04:08:56.344Z,88.30
2023-11-29T04:10:30.533Z,87.93
2023-11-29T04:12:02.100Z,88.67
2023-11-29T04:13:33.699Z,88.30
2023-11-29T04:15:05.987Z,87.82
2023-11-29T04:16:37.584Z,88.20
2023-11-29T04:18:09.285Z,88.01
2023-11-29T04:19:40.901Z,88.35
2023-11-29T04:21:32.064Z,87.93
2023-11-29T04:23:03.699Z,87.62
2023-11-29T04:24:35.336Z,88.19
2023-11-29T04:26:08.510Z,88.85
2023-11-29T04:27:40.082Z,89.25
2023-11-29T04:29:12.677Z,89.29
2023-11-29T04:30:44.492Z,89.53
2023-11-29T04:32:16.155Z,89.58
2023-11-29T04:33:47.742Z,90.03
2023-11-29T04:35:19.332Z,89.55
2023-11-29T04:36:51.631Z,89.70
2023-11-29T04:38:23.502Z,89.78
2023-11-29T04:39:55.107Z,90.38
2023-11-29T04:41:27.069Z,89.98
2023-11-29T04:42:58.712Z,90.26
2023-11-29T04:44:30.263Z,89.55
2023-11-29T04:46:01.816Z,90.06
2023-11-29T04:47:33.538Z,89.71
2023-11-29T04:49:06.375Z,89.98
2023-11-29T04:50:37.947Z,90.37
2023-11-29T04:52:09.608Z,90.34
2023-11-29T04:53:41.928Z,90.37
2023-11-29T04:55:13.568Z,90.10
2023-11-29T04:56:45.939Z,90.09
2023-11-29T04:58:17.531Z,90.18
2023-11-29T04:59:49.119Z,89.66
2023-11-29T05:01:21.035Z,89.65
2023-11-29T05:02:52.986Z,89.95
2023-11-29T05:04:25.953Z,89.50
2023-11-29T05:05:57.670Z,89.30
2023-11-29T05:07:29.255Z,89.51
2023-11-29T05:09:00.816Z,88.62
2023-11-29T05:10:32.373Z,89.69
2023-11-29T05:12:04.744Z,90.47
2023-11-29T05:13:36.505Z,90.40
2023-11-29T05:15:08.720Z,89.77
2023-11-29T05:16:40.418Z,89.19
2023-11-29T05:18:12.229Z,89.04
2023-11-29T05:19:43.910Z,88.53
2023-11-29T05:21:15.485Z,88.22
2023-11-29T05:22:47.073Z,88.24
2023-11-29T05:24:18.651Z,88.89
2023-11-29T05:25:50.156Z,88.90
2023-11-29T05:27:21.714Z,88.79
2023-11-29T05:28:53.268Z,88.60
2023-11-29T05:30:25.685Z,88.86
2023-11-29T05:31:57.250Z,88.57
2023-11-29T05:33:30.877Z,88.43
2023-11-29T05:35:02.945Z,88.00
2023-11-29T05:36:34.663Z,87.29
2023-11-29T05:38:06.266Z,87.57
2023-11-29T05:39:37.840Z,86.98
2023-11-29T05:41:09.480Z,87.58
2023-11-29T05:42:41.461Z,87.17
2023-11-29T05:44:14.439Z,86.76
2023-11-29T05:45:46.047Z,86.49
2023-11-29T05:47:17.742Z,86.12
2023-11-29T05:48:49.397Z,86.28
2023-11-29T05:50:21.056Z,86.65
2023-11-29T05:51:52.653Z,86.72
2023-11-29T05:53:24.631Z,86.23
2023-11-29T05:54:57.559Z,86.58
2023-11-29T05:56:29.433Z,86.57
2023-11-29T05:58:01.853Z,86.66
2023-11-29T05:59:33.587Z,85.60
2023-11-29T06:01:08.450Z,85.79
2023-11-29T06:02:40.826Z,87.03
2023-11-29T06:04:12.497Z,86.90
2023-11-29T06:05:44.181Z,86.75
2023-11-29T06:07:16.290Z,86.66
2023-11-29T06:08:47.886Z,86.06
2023-11-29T06:10:19.614Z,85.05
2023-11-29T06:11:51.190Z,84.33
2023-11-29T06:13:23.805Z,83.41
2023-11-29T06:14:55.472Z,83.24
2023-11-29T06:16:27.132Z,83.22
2023-11-29T06:17:58.847Z,83.62
2023-11-29T06:19:30.490Z,83.62
2023-11-29T06:21:05.435Z,84.23
2023-11-29T06:22:36.998Z,85.28
2023-11-29T06:24:09.205Z,86.22
2023-11-29T06:25:40.757Z,85.40
2023-11-29T06:27:12.757Z,85.89
2023-11-29T06:28:44.336Z,85.30
2023-11-29T06:30:17.772Z,84.00
2023-11-29T06:31:49.496Z,84.18
2023-11-29T06:33:21.451Z,84.29
2023-11-29T06:34:53.669Z,84.18
2023-11-29T06:36:25.828Z,83.68
2023-11-29T06:38:02.620Z,83.46
2023-11-29T06:39:37.674Z,84.30
2023-11-29T06:41:09.523Z,84.38
2023-11-29T06:42:41.330Z,84.81
2023-11-29T06:44:13.205Z,85.35
2023-11-29T06:45:44.805Z,85.73
2023-11-29T06:47:18.484Z,85.48
2023-11-29T06:48:51.504Z,86.43
2023-11-29T06:50:23.123Z,85.12
2023-11-29T06:51:54.705Z,84.57
2023-11-29T06:53:26.309Z,85.60
2023-11-29T06:54:58.244Z,86.20
2023-11-29T06:56:29.796Z,86.33
2023-11-29T06:58:08.052Z,87.10
2023-11-29T06:59:43.294Z,86.94
2023-11-29T07:01:15.028Z,87.39
2023-11-29T07:02:46.798Z,87.82
2023-11-29T07:04:18.497Z,87.93
2023-11-29T07:05:50.206Z,87.77
2023-11-29T07:07:21.831Z,87.66
2023-11-29T07:08:53.468Z,87.59
2023-11-29T07:10:26.868Z,86.90
2023-11-29T07:11:58.565Z,86.58
2023-11-29T07:13:30.197Z,86.27
2023-11-29T07:15:01.969Z,86.84
2023-11-29T07:16:33.689Z,87.09
2023-11-29T07:18:06.172Z,87.60
2023-11-29T07:19:38.108Z,86.41
2023-11-29T07:21:09.971Z,87.21
2023-11-29T07:22:41.540Z,86.87
2023-11-29T07:24:13.141Z,87.76
2023-11-29T07:25:44.701Z,88.06
2023-11-29T07:27:16.464Z,86.66
2023-11-29T07:28:48.826Z,87.09
2023-11-29T07:30:20.588Z,86.84
2023-11-29T07:31:55.382Z,86.70
2023-11-29T07:33:27.161Z,86.84
2023-11-29T07:34:58.928Z,85.29
2023-11-29T07:36:32.650Z,83.56
2023-11-29T07:38:04.938Z,83.80
2023-11-29T07:39:36.558Z,84.54
2023-11-29T07:41:08.189Z,85.40
2023-11-29T07:42:39.822Z,85.11
2023-11-29T07:44:11.624Z,85.90
2023-11-29T07:45:43.247Z,84.94
2023-11-29T07:47:14.908Z,84.20
2023-11-29T07:48:46.578Z,85.65
2023-11-29T07:50:18.318Z,84.87
2023-11-29T07:51:49.982Z,84.35
2023-11-29T07:53:21.706Z,85.31
2023-11-29T07:54:53.342Z,85.74
2023-11-29T07:56:24.947Z,85.10
2023-11-29T07:57:56.557Z,84.58
2023-11-29T07:59:28.172Z,85.17
2023-11-29T08:00:59.864Z,84.68
2023-11-29T08:02:31.478Z,84.30
2023-11-29T08:04:03.222Z,83.90
2023-11-29T08:05:35.739Z,83.97
2023-11-29T08:07:07.363Z,84.03
2023-11-29T08:08:38.975Z,83.96
2023-11-29T08:10:10.728Z,84.11
2023-11-29T08:11:45.632Z,83.94
2023-11-29T08:13:17.317Z,83.71
2023-11-29T08:14:50.706Z,83.74
2023-11-29T08:16:22.779Z,83.31
2023-11-29T08:17:54.380Z,83.02
2023-11-29T08:19:26.423Z,83.49
2023-11-29T08:20:59.221Z,83.31
2023-11-29T08:22:30.881Z,83.79
2023-11-29T08:24:02.964Z,83.57
2023-11-29T08:25:34.640Z,83.64
2023-11-29T08:27:06.315Z,82.41
2023-11-29T08:28:37.872Z,82.74
2023-11-29T08:30:09.831Z,82.54
2023-11-29T08:31:41.432Z,80.91
2023-11-29T08:33:14.207Z,81.85
2023-11-29T08:34:47.059Z,80.36
2023-11-29T08:36:18.596Z,79.99
2023-11-29T08:37:51.392Z,79.38
2023-11-29T08:39:22.952Z,78.10
2023-11-29T08:40:54.539Z,78.38
2023-11-29T08:42:26.105Z,77.55
2023-11-29T08:43:57.695Z,76.90
2023-11-29T08:45:29.287Z,77.40
2023-11-29T08:47:00.927Z,76.80
2023-11-29T08:48:32.922Z,76.87
2023-11-29T08:50:06.736Z,76.56
2023-11-29T08:51:38.322Z,76.46
2023-11-29T08:53:09.905Z,75.82
2023-11-29T08:54:41.536Z,74.55
2023-11-29T08:56:17.738Z,75.18
2023-11-29T08:57:51.397Z,75.61
2023-11-29T08:59:24.685Z,74.67
2023-11-29T09:00:56.555Z,74.74
2023-11-29T09:02:31.229Z,74.75
2023-11-29T09:04:02.992Z,75.99
2023-11-29T09:05:34.635Z,74.31
2023-11-29T09:07:07.395Z,75.53
2023-11-29T09:08:39.025Z,74.24
2023-11-29T09:10:11.162Z,74.65
2023-11-29T09:11:42.831Z,74.53
2023-11-29T09:13:14.452Z,73.72
2023-11-29T09:14:46.304Z,72.48
2023-11-29T09:16:19.173Z,73.93
2023-11-29T09:17:51.652Z,73.00
2023-11-29T09:19:23.824Z,73.26
2023-11-29T09:20:55.368Z,72.60
2023-11-29T09:22:27.600Z,73.45
2023-11-29T09:23:59.242Z,72.28
2023-11-29T09:25:30.903Z,71.47
2023-11-29T09:27:02.921Z,71.28
2023-11-29T10:08:07.895Z,67.47
2023-11-29T10:09:39.963Z,66.90
2023-11-29T10:11:13.229Z,67.16
2023-11-29T10:12:46.335Z,66.41
2023-11-29T10:14:18.291Z,66.65
2023-11-29T10:15:51.399Z,68.11
2023-11-29T10:17:23.438Z,68.02
2023-11-29T10:18:55.426Z,67.34
2023-11-29T10:20:27.314Z,67.56
2023-11-29T10:22:01.349Z,66.93
2023-11-29T10:23:33.561Z,66.03
2023-11-29T10:25:20.993Z,65.74
2023-11-29T10:26:53.481Z,66.38
2023-11-29T10:28:25.131Z,65.37
2023-11-29T10:29:56.738Z,66.44
2023-11-29T10:31:28.860Z,66.83
2023-11-29T10:33:03.921Z,66.80
2023-11-29T10:34:37.401Z,67.05
2023-11-29T10:36:10.406Z,67.47
2023-11-29T10:37:45.838Z,67.68
2023-11-29T10:39:22.310Z,66.22
2023-11-29T10:40:57.087Z,65.70
2023-11-29T10:42:29.095Z,66.79
2023-11-29T10:44:02.590Z,67.01
2023-11-29T10:45:37.396Z,66.23
2023-11-29T10:47:21.945Z,67.68
2023-11-29T10:49:04.241Z,66.49
2023-11-29T10:50:38.622Z,66.58
2023-11-29T10:52:10.477Z,66.61
2023-11-29T10:53:42.616Z,67.22
2023-11-29T10:55:15.500Z,66.62
2023-11-29T10:56:49.763Z,66.11
2023-11-29T10:58:36.487Z,66.66
2023-11-29T11:00:16.569Z,67.00
2023-11-29T11:01:48.958Z,66.80
2023-11-29T11:03:44.096Z,67.27
2023-11-29T11:05:23.880Z,66.50
2023-11-29T11:06:58.417Z,67.16
2023-11-29T11:08:39.057Z,67.05
2023-11-29T11:10:23.228Z,66.19
2023-11-29T11:11:54.996Z,65.80
2023-11-29T11:13:38.254Z,66.30
2023-11-29T11:15:20.805Z,66.39
2023-11-29T11:16:58.227Z,65.99
2023-11-29T11:18:31.151Z,65.93
2023-11-29T11:20:10.005Z,65.32
2023-11-29T11:21:42.877Z,65.61
2023-11-29T11:23:32.878Z,65.95
2023-11-29T11:25:12.908Z,66.33
2023-11-29T11:27:08.101Z,65.63
2023-11-29T11:28:41.126Z,66.09
2023-11-29T11:30:16.107Z,65.35
2023-11-29T11:31:47.808Z,66.73
2023-11-29T11:33:19.515Z,65.44
2023-11-29T11:34:51.155Z,64.43
2023-11-29T11:36:26.433Z,64.35
2023-11-29T11:38:00.281Z,64.67
2023-11-29T11:39:31.914Z,63.64
2023-11-29T11:41:03.727Z,63.71
2023-11-29T11:42:35.750Z,64.46
2023-11-29T11:44:08.185Z,64.48
2023-11-29T11:45:40.554Z,65.05
2023-11-29T11:47:12.215Z,65.22
2023-11-29T11:48:46.241Z,64.81
2023-11-29T11:50:18.984Z,64.01
2023-11-29T11:51:52.571Z,64.94
2023-11-29T11:53:24.402Z,64.07
2023-11-29T11:54:56.120Z,64.32
2023-11-29T11:56:27.947Z,63.51
2023-11-29T11:58:00.985Z,64.42
2023-11-29T11:59:32.843Z,63.77
2023-11-29T12:01:04.565Z,63.99
2023-11-29T12:02:36.721Z,63.12
2023-11-29T12:04:08.405Z,63.76
2023-11-29T12:05:41.048Z,63.82
2023-11-29T12:07:13.061Z,63.48
2023-11-29T12:08:45.444Z,63.67
2023-11-29T12:10:17.319Z,62.91
2023-11-29T12:11:48.991Z,62.42
2023-11-29T12:13:22.364Z,62.84
2023-11-29T12:14:55.602Z,63.07
2023-11-29T12:16:27.714Z,63.29
2023-11-29T12:17:59.597Z,61.90
2023-11-29T12:19:31.421Z,62.13
2023-11-29T12:21:04.148Z,62.10
2023-11-29T12:22:42.038Z,62.31
2023-11-29T12:24:13.844Z,63.17
2023-11-29T12:25:55.199Z,61.70
2023-11-29T12:27:28.438Z,61.99
2023-11-29T12:29:00.818Z,62.20
2023-11-29T12:30:32.476Z,61.73
2023-11-29T12:32:08.021Z,61.50
2023-11-29T12:33:39.983Z,60.75
2023-11-29T12:35:17.201Z,61.44
2023-11-29T12:36:49.263Z,61.04
2023-11-29T12:38:21.004Z,60.89
2023-11-29T12:39:53.636Z,61.42
2023-11-29T12:41:25.241Z,61.11
2023-11-29T12:42:56.806Z,61.55
2023-11-29T12:44:28.507Z,62.10
2023-11-29T12:46:00.405Z,62.36
2023-11-29T12:47:32.685Z,61.98
2023-11-29T12:49:04.420Z,62.19
2023-11-29T12:50:36.919Z,63.52
2023-11-29T12:52:08.788Z,62.68
2023-11-29T12:53:40.974Z,63.22
2023-11-29T12:55:13.090Z,62.91
2023-11-29T12:56:45.679Z,61.75
2023-11-29T12:58:17.815Z,62.38
2023-11-29T12:59:49.719Z,61.91
2023-11-29T13:01:23.799Z,62.02
2023-11-29T13:02:55.478Z,60.99
2023-11-29T13:04:27.248Z,61.42
2023-11-29T13:05:58.939Z,61.30
2023-11-29T13:07:30.520Z,61.49
2023-11-29T13:09:02.675Z,61.34
2023-11-29T13:10:34.722Z,61.38
2023-11-29T13:12:06.898Z,61.34
2023-11-29T13:13:39.133Z,61.14
2023-11-29T13:15:11.172Z,61.45
2023-11-29T13:16:42.930Z,61.47
2023-11-29T13:18:14.697Z,61.31
2023-11-29T13:19:46.405Z,61.52
2023-11-29T13:21:18.245Z,61.35
2023-11-29T13:22:50.552Z,61.96
2023-11-29T13:24:22.218Z,62.46
2023-11-29T13:25:53.830Z,63.08
2023-11-29T13:27:26.324Z,60.71
2023-11-29T13:28:57.926Z,61.23
2023-11-29T13:30:29.489Z,61.52
2023-11-29T13:32:01.268Z,61.95
2023-11-29T13:33:33.020Z,61.71
2023-11-29T13:35:05.251Z,61.80
2023-11-29T13:36:37.351Z,62.21
2023-11-29T13:38:08.959Z,61.35
2023-11-29T13:39:40.995Z,61.05
2023-11-29T13:41:12.639Z,60.31
2023-11-29T13:42:44.641Z,60.79
2023-11-29T13:44:17.629Z,60.56
2023-11-29T13:45:49.265Z,60.09
2023-11-29T13:47:20.905Z,61.09
2023-11-29T13:48:52.676Z,60.79
2023-11-29T13:50:26.515Z,59.63
2023-11-29T13:52:07.551Z,59.36
2023-11-29T13:53:44.682Z,59.87
2023-11-29T13:55:16.915Z,58.81
2023-11-29T13:56:48.603Z,58.67
2023-11-29T13:58:20.248Z,58.19
2023-11-29T13:59:51.988Z,58.52
2023-11-29T14:01:23.629Z,58.52
2023-11-29T14:02:55.400Z,58.98
2023-11-29T14:04:27.923Z,57.87
2023-11-29T14:06:00.173Z,58.36
2023-11-29T14:07:31.991Z,58.88
2023-11-29T14:09:04.564Z,59.24
2023-11-29T14:10:36.158Z,58.13
2023-11-29T14:12:08.158Z,58.40
2023-11-29T14:13:39.828Z,58.11
2023-11-29T14:15:12.549Z,58.06
2023-11-29T14:16:44.281Z,58.46
2023-11-29T14:18:15.968Z,57.65
2023-11-29T14:19:47.900Z,57.65
2023-11-29T14:21:19.488Z,58.03
2023-11-29T14:22:51.298Z,58.94
2023-11-29T14:24:23.000Z,58.03
2023-11-29T14:25:54.649Z,58.15
2023-11-29T14:27:26.894Z,58.29
2023-11-29T14:28:58.572Z,57.68
2023-11-29T14:30:30.201Z,58.74
2023-11-29T14:32:01.905Z,58.86
2023-11-29T14:33:37.172Z,58.79
2023-11-29T14:35:09.364Z,57.80
2023-11-29T14:36:48.632Z,57.99
2023-11-29T14:38:20.233Z,58.46
2023-11-29T14:39:51.864Z,59.26
2023-11-29T14:41:28.371Z,58.82
2023-11-29T14:43:01.352Z,58.99
2023-11-29T14:44:33.367Z,59.00
2023-11-29T14:46:05.243Z,59.18
2023-11-29T14:47:36.977Z,59.04
2023-11-29T14:49:16.724Z,59.41
2023-11-29T14:50:55.226Z,60.03
2023-11-29T14:52:27.736Z,59.90
2023-11-29T14:54:01.844Z,59.67
2023-11-29T14:55:33.813Z,59.49
2023-11-29T14:57:05.718Z,59.63
2023-11-29T14:58:37.580Z,59.59
2023-11-29T15:00:11.121Z,59.76
2023-11-29T15:01:43.047Z,59.81
2023-11-29T15:03:14.848Z,59.59
2023-11-29T15:04:47.222Z,59.94
2023-11-29T15:06:22.303Z,60.42
2023-11-29T15:07:53.980Z,59.92
2023-11-29T15:09:25.856Z,60.10
2023-11-29T15:11:00.589Z,61.22
2023-11-29T15:12:32.441Z,60.91
2023-11-29T15:14:04.067Z,60.91
2023-11-29T15:15:35.813Z,60.76
2023-11-29T15:17:07.600Z,60.78
2023-11-29T15:18:40.227Z,60.44
2023-11-29T15:20:12.279Z,60.59
2023-11-29T15:21:46.760Z,61.22
2023-11-29T15:23:18.482Z,63.05
2023-11-29T15:24:50.568Z,61.76
2023-11-29T15:26:22.201Z,63.33
2023-11-29T15:27:53.802Z,62.22
2023-11-29T15:29:25.565Z,62.49
2023-11-29T15:30:57.509Z,63.29
2023-11-29T15:32:29.184Z,63.14
2023-11-29T15:34:00.910Z,63.82
2023-11-29T15:35:34.820Z,63.18
2023-11-29T15:37:06.875Z,62.17
2023-11-29T15:38:41.085Z,62.57
2023-11-29T15:40:14.111Z,62.23
2023-11-29T15:41:46.601Z,63.53
2023-11-29T15:43:18.236Z,63.88
2023-11-29T15:44:52.516Z,63.52
2023-11-29T15:46:24.389Z,63.17
2023-11-29T15:47:58.253Z,63.04
2023-11-29T15:49:30.298Z,63.38
2023-11-29T15:51:02.279Z,63.43
2023-11-29T15:52:33.994Z,63.47
2023-11-29T15:54:05.726Z,63.99
2023-11-29T15:55:38.941Z,63.68
2023-11-29T15:57:10.639Z,64.50
2023-11-29T15:58:44.601Z,64.05
2023-11-29T16:00:16.892Z,65.08
2023-11-29T16:01:48.597Z,64.94
2023-11-29T16:03:20.380Z,65.79
2023-11-29T16:04:52.412Z,65.93
2023-11-29T16:06:24.130Z,66.38
2023-11-29T16:07:55.806Z,66.83
2023-11-29T16:09:27.534Z,65.76
2023-11-29T16:10:59.567Z,65.93
2023-11-29T16:12:31.158Z,65.39
2023-11-29T16:14:02.738Z,66.05
2023-11-29T16:15:34.644Z,66.69
2023-11-29T16:17:06.295Z,66.07
2023-11-29T16:18:38.150Z,66.49
2023-11-29T16:20:10.440Z,67.36
2023-11-29T16:21:42.096Z,67.11
2023-11-29T16:23:13.732Z,67.25
2023-11-29T16:24:45.333Z,68.64
2023-11-29T16:26:17.047Z,68.69
2023-11-29T16:27:48.707Z,67.89
2023-11-29T16:29:20.801Z,68.96
2023-11-29T16:30:53.716Z,68.71
2023-11-29T16:32:25.395Z,69.36
2023-11-29T16:33:57.095Z,69.64
2023-11-29T16:35:28.930Z,70.19
2023-11-29T16:37:00.534Z,69.98
2023-11-29T16:38:32.184Z,69.91
2023-11-29T16:40:04.357Z,70.06
2023-11-29T16:41:36.112Z,69.93
2023-11-29T16:43:10.294Z,70.50
2023-11-29T16:44:42.026Z,70.47
2023-11-29T16:46:13.791Z,70.61
2023-11-29T16:47:45.727Z,70.80
2023-11-29T16:49:17.755Z,71.04
2023-11-29T16:50:49.605Z,71.42
2023-11-29T16:52:21.248Z,70.59
2023-11-29T16:53:52.882Z,70.69
2023-11-29T16:55:24.658Z,70.96
2023-11-29T16:56:56.425Z,72.46
2023-11-29T16:58:28.722Z,72.87
2023-11-29T17:00:00.685Z,72.73
2023-11-29T17:01:32.442Z,72.26
2023-11-29T17:03:06.261Z,72.62
2023-11-29T17:04:38.510Z,72.65
2023-11-29T17:06:10.572Z,74.48
2023-11-29T17:07:42.268Z,73.96
2023-11-29T17:09:13.941Z,73.29
2023-11-29T17:10:45.739Z,73.62
2023-11-29T17:12:17.522Z,73.67
2023-11-29T17:13:49.412Z,73.82
2023-11-29T17:15:22.018Z,73.98
2023-11-29T17:16:53.722Z,73.29
2023-11-29T17:18:25.516Z,74.38
2023-11-29T17:19:58.235Z,73.67
2023-11-29T17:21:30.080Z,73.43
2023-11-29T17:23:02.552Z,73.80
2023-11-29T17:24:34.579Z,73.55
2023-11-29T17:26:06.623Z,73.51
2023-11-29T17:27:38.181Z,73.25
2023-11-29T17:29:09.767Z,73.00
2023-11-29T17:30:42.056Z,73.67
2023-11-29T17:32:13.690Z,73.65
2023-11-29T17:33:45.362Z,74.08
2023-11-29T17:35:17.139Z,74.46
2023-11-29T17:36:49.539Z,75.14
2023-11-29T17:38:21.291Z,76.03
2023-11-29T17:39:53.181Z,76.52
2023-11-29T17:41:25.131Z,76.42
2023-11-29T17:42:56.825Z,76.44
2023-11-29T17:44:28.583Z,76.31
2023-11-29T17:46:00.302Z,75.25
2023-11-29T17:47:32.987Z,76.02
2023-11-29T17:49:04.752Z,76.41
2023-11-29T17:50:39.514Z,77.18
2023-11-29T17:52:12.613Z,76.84
2023-11-29T17:53:44.474Z,76.50
2023-11-29T17:55:16.156Z,77.20
2023-11-29T17:56:47.830Z,76.50
2023-11-29T17:58:19.852Z,76.09
2023-11-29T18:01:23.557Z,77.31
2023-11-29T18:02:55.322Z,76.87
2023-11-29T18:04:27.351Z,76.24
2023-11-29T18:05:58.997Z,76.89
2023-11-29T18:07:30.634Z,75.92
2023-11-29T18:09:03.573Z,75.09
2023-11-29T18:10:53.047Z,75.82
2023-11-29T18:12:24.703Z,76.98
2023-11-29T18:13:59.813Z,77.78
2023-11-29T18:15:31.441Z,77.90
2023-11-29T18:17:03.185Z,78.81
2023-11-29T18:18:34.921Z,79.08
2023-11-29T18:20:07.424Z,78.31
2023-11-29T18:21:39.123Z,78.74
2023-11-29T18:23:11.262Z,78.66
2023-11-29T18:24:43.657Z,78.57
2023-11-29T18:26:15.304Z,78.92
2023-11-29T18:27:47.131Z,79.10
2023-11-29T18:29:18.817Z,78.62
2023-11-29T18:30:50.649Z,79.31
2023-11-29T18:32:22.331Z,79.18
2023-11-29T18:33:54.314Z,79.40
2023-11-29T18:35:26.004Z,79.11
2023-11-29T18:36:58.040Z,79.85
2023-11-29T18:38:29.905Z,79.95
2023-11-29T18:40:02.209Z,80.22
2023-11-29T18:41:33.822Z,80.00
2023-11-29T18:43:05.533Z,80.20
2023-11-29T18:44:38.881Z,80.42
2023-11-29T18:46:10.660Z,79.95
2023-11-29T18:47:43.242Z,80.36
2023-11-29T18:49:15.284Z,80.56
2023-11-29T18:50:47.043Z,80.84
2023-11-29T18:52:19.260Z,80.69
2023-11-29T18:53:51.051Z,80.36
2023-11-29T18:55:23.835Z,80.75
2023-11-29T18:56:55.460Z,81.20
2023-11-29T18:58:27.135Z,80.64
2023-11-29T18:59:58.848Z,81.00
2023-11-29T19:01:30.809Z,81.54
2023-11-29T19:03:02.993Z,81.42
2023-11-29T19:04:35.374Z,81.95
2023-11-29T19:06:07.803Z,82.06
2023-11-29T19:07:39.506Z,81.35
2023-11-29T19:09:12.729Z,81.85
2023-11-29T19:10:44.892Z,82.30
2023-11-29T19:12:16.729Z,82.97
2023-11-29T19:13:48.359Z,83.57
2023-11-29T19:15:20.173Z,82.84
2023-11-29T19:16:51.836Z,82.32
2023-11-29T19:18:23.589Z,82.58
2023-11-29T19:19:55.314Z,82.76
2023-11-29T19:21:26.951Z,82.17
2023-11-29T19:22:58.571Z,81.49
2023-11-29T19:24:30.269Z,82.29
2023-11-29T19:26:02.859Z,81.81
2023-11-29T19:27:34.512Z,82.00
2023-11-29T19:29:06.142Z,82.54
2023-11-29T19:30:37.827Z,82.83
2023-11-29T19:32:09.482Z,82.15
2023-11-29T19:33:41.155Z,80.67
2023-11-29T19:35:22.354Z,80.84
2023-11-29T19:36:59.964Z,82.20
2023-11-29T19:38:31.577Z,82.21
2023-11-29T19:40:04.409Z,81.51
2023-11-29T19:41:36.083Z,81.83
2023-11-29T19:43:07.757Z,81.61
2023-11-29T19:44:41.416Z,81.62
2023-11-29T19:46:13.521Z,82.11
2023-11-29T19:47:45.324Z,81.02
2023-11-29T19:49:17.400Z,81.33
2023-11-29T19:50:49.614Z,80.78
2023-11-29T19:52:22.439Z,80.81
2023-11-29T19:53:54.134Z,80.34
2023-11-29T19:55:25.953Z,80.79
2023-11-29T19:56:57.679Z,80.41
2023-11-29T19:58:32.502Z,80.96
2023-11-29T20:00:05.116Z,80.74
2023-11-29T20:01:37.114Z,80.59
2023-11-29T20:03:08.799Z,80.79
2023-11-29T20:04:40.520Z,80.73
2023-11-29T20:06:12.377Z,79.93
2023-11-29T20:07:45.132Z,80.58
2023-11-29T20:09:17.749Z,80.10
2023-11-29T20:10:57.406Z,81.09
2023-11-29T20:12:29.025Z,80.67
2023-11-29T20:14:00.709Z,79.83
2023-11-29T20:15:32.343Z,79.82
2023-11-29T20:17:04.236Z,80.06
2023-11-29T20:18:37.930Z,79.61
2023-11-29T20:21:44.060Z,79.79
2023-11-29T20:23:16.091Z,79.50
2023-11-29T20:24:47.848Z,80.17
2023-11-29T20:26:19.742Z,79.85
2023-11-29T20:27:51.462Z,80.35
2023-11-29T20:29:23.119Z,79.85
2023-11-29T20:30:55.406Z,79.87
2023-11-29T20:32:29.282Z,80.61
2023-11-29T20:34:02.771Z,80.23
2023-11-29T20:35:40.174Z,80.54